sensor_id;sensor_type;location;lat;lon;timestamp;pressure;altitude;pressure_sealevel;temperature;humidity
74778;BME280;63298;53.164;8.610;2022-09-21T00:00:12;102751.19;;;10.22;73.61
74778;BME280;63298;53.164;8.610;2022-09-21T00:02:37;102753.09;;;10.21;74.05
74778;BME280;63298;53.164;8.610;2022-09-21T00:05:03;102752.03;;;10.22;73.39
74778;BME280;63298;53.164;8.610;2022-09-21T00:07:28;102751.88;;;10.24;74.41
74778;BME280;63298;53.164;8.610;2022-09-21T00:09:53;102750.88;;;10.17;74.11
74778;BME280;63298;53.164;8.610;2022-09-21T00:12:19;102757.63;;;10.14;74.66
74778;BME280;63298;53.164;8.610;2022-09-21T00:14:44;102758.13;;;10.18;74.02
74778;BME280;63298;53.164;8.610;2022-09-21T00:17:09;102759.84;;;10.19;74.31
74778;BME280;63298;53.164;8.610;2022-09-21T00:19:35;102753.66;;;10.17;74.24
74778;BME280;63298;53.164;8.610;2022-09-21T00:22:00;102759.16;;;10.17;74.51
74778;BME280;63298;53.164;8.610;2022-09-21T00:24:25;102758.47;;;10.15;74.80
74778;BME280;63298;53.164;8.610;2022-09-21T00:26:50;102752.66;;;10.10;73.82
74778;BME280;63298;53.164;8.610;2022-09-21T00:29:16;102748.56;;;10.06;74.42
74778;BME280;63298;53.164;8.610;2022-09-21T00:31:41;102755.56;;;9.93;74.37
74778;BME280;63298;53.164;8.610;2022-09-21T00:34:06;102753.38;;;9.89;74.90
74778;BME280;63298;53.164;8.610;2022-09-21T00:36:32;102756.28;;;9.87;74.98
74778;BME280;63298;53.164;8.610;2022-09-21T00:38:59;102755.94;;;9.90;75.43
74778;BME280;63298;53.164;8.610;2022-09-21T00:41:25;102758.03;;;9.88;74.58
74778;BME280;63298;53.164;8.610;2022-09-21T00:46:36;102756.81;;;9.91;74.62
74778;BME280;63298;53.164;8.610;2022-09-21T00:49:02;102754.22;;;9.89;74.41
74778;BME280;63298;53.164;8.610;2022-09-21T00:51:28;102746.03;;;9.81;74.64
74778;BME280;63298;53.164;8.610;2022-09-21T00:53:59;102763.06;;;9.85;74.24
74778;BME280;63298;53.164;8.610;2022-09-21T00:56:27;102754.63;;;9.86;74.55
74778;BME280;63298;53.164;8.610;2022-09-21T00:58:53;102762.50;;;9.89;74.07
74778;BME280;63298;53.164;8.610;2022-09-21T01:01:19;102751.16;;;9.84;73.72
74778;BME280;63298;53.164;8.610;2022-09-21T01:03:45;102754.47;;;9.80;74.38
74778;BME280;63298;53.164;8.610;2022-09-21T01:06:12;102760.72;;;9.74;74.13
74778;BME280;63298;53.164;8.610;2022-09-21T01:08:39;102753.75;;;9.63;74.34
74778;BME280;63298;53.164;8.610;2022-09-21T01:11:43;102759.25;;;9.63;74.35
74778;BME280;63298;53.164;8.610;2022-09-21T01:31:21;102752.66;;;9.49;74.29
74778;BME280;63298;53.164;8.610;2022-09-21T01:33:52;102767.66;;;9.47;74.05
74778;BME280;63298;53.164;8.610;2022-09-21T01:36:21;102768.88;;;9.44;74.85
74778;BME280;63298;53.164;8.610;2022-09-21T01:38:51;102772.47;;;9.45;73.83
74778;BME280;63298;53.164;8.610;2022-09-21T01:41:21;102759.44;;;9.39;73.80
74778;BME280;63298;53.164;8.610;2022-09-21T01:43:53;102770.09;;;9.42;73.76
74778;BME280;63298;53.164;8.610;2022-09-21T01:46:21;102765.63;;;9.41;74.18
74778;BME280;63298;53.164;8.610;2022-09-21T01:48:52;102770.81;;;9.36;74.19
74778;BME280;63298;53.164;8.610;2022-09-21T01:51:20;102765.34;;;9.28;74.44
74778;BME280;63298;53.164;8.610;2022-09-21T01:53:55;102768.63;;;9.23;74.26
74778;BME280;63298;53.164;8.610;2022-09-21T01:56:39;102769.25;;;9.10;74.89
74778;BME280;63298;53.164;8.610;2022-09-21T02:02:16;102767.38;;;9.03;75.28
74778;BME280;63298;53.164;8.610;2022-09-21T02:04:45;102772.38;;;9.07;74.89
74778;BME280;63298;53.164;8.610;2022-09-21T02:07:10;102778.91;;;9.06;75.25
74778;BME280;63298;53.164;8.610;2022-09-21T02:09:36;102772.88;;;9.03;74.72
74778;BME280;63298;53.164;8.610;2022-09-21T02:12:02;102777.72;;;9.01;75.43
74778;BME280;63298;53.164;8.610;2022-09-21T02:14:28;102774.28;;;8.99;75.48
74778;BME280;63298;53.164;8.610;2022-09-21T02:19:44;102779.63;;;9.00;75.65
74778;BME280;63298;53.164;8.610;2022-09-21T02:22:29;102779.78;;;8.99;75.48
74778;BME280;63298;53.164;8.610;2022-09-21T02:25:06;102777.56;;;9.02;75.08
74778;BME280;63298;53.164;8.610;2022-09-21T02:27:40;102769.94;;;9.04;75.70
74778;BME280;63298;53.164;8.610;2022-09-21T02:30:12;102772.72;;;9.04;75.30
74778;BME280;63298;53.164;8.610;2022-09-21T02:32:56;102765.16;;;8.98;75.21
74778;BME280;63298;53.164;8.610;2022-09-21T02:35:37;102773.78;;;8.95;75.28
74778;BME280;63298;53.164;8.610;2022-09-21T02:38:10;102780.69;;;8.91;75.48
74778;BME280;63298;53.164;8.610;2022-09-21T02:40:47;102778.97;;;8.90;75.64
74778;BME280;63298;53.164;8.610;2022-09-21T02:43:21;102764.88;;;8.85;75.37
74778;BME280;63298;53.164;8.610;2022-09-21T02:45:59;102776.22;;;8.90;75.88
74778;BME280;63298;53.164;8.610;2022-09-21T02:48:31;102771.75;;;8.89;75.15
74778;BME280;63298;53.164;8.610;2022-09-21T02:51:10;102768.34;;;8.87;75.62
74778;BME280;63298;53.164;8.610;2022-09-21T02:53:37;102775.53;;;8.88;75.32
74778;BME280;63298;53.164;8.610;2022-09-21T02:56:05;102777.44;;;8.88;75.52
74778;BME280;63298;53.164;8.610;2022-09-21T02:58:46;102779.69;;;8.84;75.47
74778;BME280;63298;53.164;8.610;2022-09-21T03:01:14;102778.31;;;8.80;75.59
74778;BME280;63298;53.164;8.610;2022-09-21T03:03:41;102774.03;;;8.78;75.19
74778;BME280;63298;53.164;8.610;2022-09-21T03:06:06;102782.63;;;8.83;75.43
74778;BME280;63298;53.164;8.610;2022-09-21T03:08:32;102785.19;;;8.84;75.09
74778;BME280;63298;53.164;8.610;2022-09-21T03:10:57;102778.66;;;8.85;75.32
74778;BME280;63298;53.164;8.610;2022-09-21T03:13:23;102791.00;;;8.89;75.77
74778;BME280;63298;53.164;8.610;2022-09-21T03:15:49;102795.47;;;8.90;75.42
74778;BME280;63298;53.164;8.610;2022-09-21T03:18:14;102794.09;;;8.94;75.59
74778;BME280;63298;53.164;8.610;2022-09-21T03:20:43;102794.94;;;8.95;74.99
74778;BME280;63298;53.164;8.610;2022-09-21T03:23:09;102799.97;;;8.91;75.21
74778;BME280;63298;53.164;8.610;2022-09-21T03:25:34;102788.63;;;8.86;75.29
74778;BME280;63298;53.164;8.610;2022-09-21T03:28:00;102794.78;;;8.88;75.49
74778;BME280;63298;53.164;8.610;2022-09-21T03:30:25;102797.38;;;8.90;75.62
74778;BME280;63298;53.164;8.610;2022-09-21T03:32:52;102798.22;;;8.90;75.16
74778;BME280;63298;53.164;8.610;2022-09-21T03:35:18;102805.28;;;8.93;75.24
74778;BME280;63298;53.164;8.610;2022-09-21T03:37:44;102808.22;;;8.91;75.67
74778;BME280;63298;53.164;8.610;2022-09-21T03:40:13;102801.84;;;8.91;75.78
74778;BME280;63298;53.164;8.610;2022-09-21T03:42:39;102804.22;;;8.94;75.20
74778;BME280;63298;53.164;8.610;2022-09-21T03:45:06;102808.88;;;8.93;75.25
74778;BME280;63298;53.164;8.610;2022-09-21T03:47:32;102806.97;;;8.94;75.37
74778;BME280;63298;53.164;8.610;2022-09-21T03:49:57;102801.84;;;8.91;75.59
74778;BME280;63298;53.164;8.610;2022-09-21T03:52:22;102804.59;;;8.91;75.64
74778;BME280;63298;53.164;8.610;2022-09-21T03:54:48;102802.22;;;8.88;75.55
74778;BME280;63298;53.164;8.610;2022-09-21T03:57:13;102787.59;;;8.79;75.29
74778;BME280;63298;53.164;8.610;2022-09-21T03:59:38;102794.84;;;8.80;76.23
74778;BME280;63298;53.164;8.610;2022-09-21T04:02:04;102800.69;;;8.77;75.61
74778;BME280;63298;53.164;8.610;2022-09-21T04:04:29;102801.03;;;8.74;75.84
74778;BME280;63298;53.164;8.610;2022-09-21T04:06:54;102803.78;;;8.74;76.38
74778;BME280;63298;53.164;8.610;2022-09-21T04:09:19;102801.91;;;8.75;75.67
74778;BME280;63298;53.164;8.610;2022-09-21T04:11:45;102796.88;;;8.78;75.48
74778;BME280;63298;53.164;8.610;2022-09-21T04:14:11;102803.09;;;8.80;75.80
74778;BME280;63298;53.164;8.610;2022-09-21T04:16:36;102794.13;;;8.78;75.15
74778;BME280;63298;53.164;8.610;2022-09-21T04:19:02;102802.06;;;8.81;75.58
74778;BME280;63298;53.164;8.610;2022-09-21T04:21:28;102795.19;;;8.77;75.27
74778;BME280;63298;53.164;8.610;2022-09-21T04:23:53;102805.34;;;8.77;75.00
74778;BME280;63298;53.164;8.610;2022-09-21T04:26:26;102802.75;;;8.75;75.84
74778;BME280;63298;53.164;8.610;2022-09-21T04:28:53;102800.38;;;8.72;75.76
74778;BME280;63298;53.164;8.610;2022-09-21T04:31:18;102800.03;;;8.67;75.85
74778;BME280;63298;53.164;8.610;2022-09-21T04:33:47;102803.81;;;8.66;75.62
74778;BME280;63298;53.164;8.610;2022-09-21T04:36:12;102801.06;;;8.66;75.61
74778;BME280;63298;53.164;8.610;2022-09-21T04:38:38;102793.50;;;8.60;75.71
74778;BME280;63298;53.164;8.610;2022-09-21T04:41:03;102796.78;;;8.55;75.47
74778;BME280;63298;53.164;8.610;2022-09-21T04:43:28;102802.47;;;8.54;75.58
74778;BME280;63298;53.164;8.610;2022-09-21T04:45:54;102803.84;;;8.50;75.91
74778;BME280;63298;53.164;8.610;2022-09-21T04:48:19;102799.75;;;8.46;75.93
74778;BME280;63298;53.164;8.610;2022-09-21T04:50:47;102802.84;;;8.43;76.37
74778;BME280;63298;53.164;8.610;2022-09-21T04:53:13;102804.75;;;8.42;75.88
74778;BME280;63298;53.164;8.610;2022-09-21T04:55:38;102808.34;;;8.43;75.53
74778;BME280;63298;53.164;8.610;2022-09-21T04:58:03;102806.47;;;8.43;75.49
74778;BME280;63298;53.164;8.610;2022-09-21T05:00:28;102805.28;;;8.38;76.16
74778;BME280;63298;53.164;8.610;2022-09-21T05:02:54;102811.47;;;8.32;75.97
74778;BME280;63298;53.164;8.610;2022-09-21T05:05:19;102808.19;;;8.28;76.56
74778;BME280;63298;53.164;8.610;2022-09-21T05:07:44;102812.47;;;8.31;75.78
74778;BME280;63298;53.164;8.610;2022-09-21T05:10:10;102807.31;;;8.28;75.96
74778;BME280;63298;53.164;8.610;2022-09-21T05:12:35;102813.84;;;8.27;75.90
74778;BME280;63298;53.164;8.610;2022-09-21T05:15:01;102817.44;;;8.19;75.80
74778;BME280;63298;53.164;8.610;2022-09-21T05:17:26;102817.13;;;8.14;76.13
74778;BME280;63298;53.164;8.610;2022-09-21T05:19:51;102818.81;;;8.15;76.26
74778;BME280;63298;53.164;8.610;2022-09-21T05:22:18;102817.28;;;8.12;75.97
74778;BME280;63298;53.164;8.610;2022-09-21T05:24:44;102826.91;;;8.16;75.71
74778;BME280;63298;53.164;8.610;2022-09-21T05:27:09;102837.72;;;8.18;76.47
74778;BME280;63298;53.164;8.610;2022-09-21T05:29:34;102823.66;;;8.13;75.85
74778;BME280;63298;53.164;8.610;2022-09-21T05:32:04;102823.47;;;8.06;76.17
74778;BME280;63298;53.164;8.610;2022-09-21T05:37:09;102832.41;;;8.08;76.30
74778;BME280;63298;53.164;8.610;2022-09-21T05:39:36;102838.41;;;8.12;76.17
74778;BME280;63298;53.164;8.610;2022-09-21T05:42:02;102834.28;;;8.16;75.82
74778;BME280;63298;53.164;8.610;2022-09-21T05:44:28;102833.94;;;8.19;75.96
74778;BME280;63298;53.164;8.610;2022-09-21T05:47:23;102844.09;;;8.18;76.01
74778;BME280;63298;53.164;8.610;2022-09-21T05:50:14;102852.31;;;8.27;75.70
74778;BME280;63298;53.164;8.610;2022-09-21T06:03:33;102847.53;;;8.37;75.92
74778;BME280;63298;53.164;8.610;2022-09-21T06:05:59;102846.31;;;8.39;75.89
74778;BME280;63298;53.164;8.610;2022-09-21T06:08:25;102849.06;;;8.39;76.05
74778;BME280;63298;53.164;8.610;2022-09-21T06:10:50;102849.06;;;8.39;76.26
74778;BME280;63298;53.164;8.610;2022-09-21T06:13:16;102854.06;;;8.36;76.37
74778;BME280;63298;53.164;8.610;2022-09-21T06:15:42;102858.91;;;8.34;76.21
74778;BME280;63298;53.164;8.610;2022-09-21T06:18:08;102853.72;;;8.31;76.06
74778;BME280;63298;53.164;8.610;2022-09-21T06:20:34;102859.22;;;8.31;76.67
74778;BME280;63298;53.164;8.610;2022-09-21T06:23:03;102866.94;;;8.35;77.16
74778;BME280;63298;53.164;8.610;2022-09-21T06:25:28;102863.03;;;8.38;76.78
74778;BME280;63298;53.164;8.610;2022-09-21T06:27:54;102863.88;;;8.46;76.65
74778;BME280;63298;53.164;8.610;2022-09-21T06:30:19;102864.56;;;8.48;76.31
74778;BME280;63298;53.164;8.610;2022-09-21T06:32:44;102863.50;;;8.49;76.42
74778;BME280;63298;53.164;8.610;2022-09-21T06:35:10;102863.19;;;8.52;76.14
74778;BME280;63298;53.164;8.610;2022-09-21T06:37:35;102862.66;;;8.57;76.93
74778;BME280;63298;53.164;8.610;2022-09-21T06:40:01;102861.25;;;8.61;76.16
74778;BME280;63298;53.164;8.610;2022-09-21T06:42:26;102857.28;;;8.63;76.61
74778;BME280;63298;53.164;8.610;2022-09-21T06:44:51;102864.84;;;8.70;76.68
74778;BME280;63298;53.164;8.610;2022-09-21T06:47:17;102861.56;;;8.74;76.51
74778;BME280;63298;53.164;8.610;2022-09-21T06:49:42;102862.94;;;8.78;76.92
74778;BME280;63298;53.164;8.610;2022-09-21T06:52:08;102854.50;;;8.80;77.34
74778;BME280;63298;53.164;8.610;2022-09-21T06:54:33;102870.50;;;8.84;76.97
74778;BME280;63298;53.164;8.610;2022-09-21T06:56:58;102863.97;;;8.85;77.46
74778;BME280;63298;53.164;8.610;2022-09-21T06:59:23;102867.22;;;8.89;76.73
74778;BME280;63298;53.164;8.610;2022-09-21T07:01:49;102861.38;;;8.92;77.18
74778;BME280;63298;53.164;8.610;2022-09-21T07:04:14;102867.75;;;8.92;77.27
74778;BME280;63298;53.164;8.610;2022-09-21T07:06:39;102869.97;;;8.89;78.38
74778;BME280;63298;53.164;8.610;2022-09-21T07:09:04;102863.75;;;8.95;78.32
74778;BME280;63298;53.164;8.610;2022-09-21T07:11:30;102874.22;;;8.99;78.30
74778;BME280;63298;53.164;8.610;2022-09-21T07:13:55;102862.88;;;9.02;77.42
74778;BME280;63298;53.164;8.610;2022-09-21T07:16:21;102866.47;;;9.11;77.58
74778;BME280;63298;53.164;8.610;2022-09-21T07:18:46;102873.28;;;9.23;77.15
74778;BME280;63298;53.164;8.610;2022-09-21T07:21:11;102874.63;;;9.35;77.46
74778;BME280;63298;53.164;8.610;2022-09-21T07:23:37;102875.59;;;9.50;77.34
74778;BME280;63298;53.164;8.610;2022-09-21T07:26:05;102868.44;;;9.64;77.34
74778;BME280;63298;53.164;8.610;2022-09-21T07:28:32;102870.25;;;9.80;77.39
74778;BME280;63298;53.164;8.610;2022-09-21T07:30:58;102879.31;;;9.88;77.43
74778;BME280;63298;53.164;8.610;2022-09-21T07:33:24;102882.31;;;10.02;77.78
74778;BME280;63298;53.164;8.610;2022-09-21T07:35:51;102871.91;;;10.12;77.97
74778;BME280;63298;53.164;8.610;2022-09-21T07:38:17;102869.31;;;10.18;77.57
74778;BME280;63298;53.164;8.610;2022-09-21T07:40:42;102878.00;;;10.30;77.71
74778;BME280;63298;53.164;8.610;2022-09-21T07:43:08;102871.75;;;10.36;77.54
74778;BME280;63298;53.164;8.610;2022-09-21T07:45:34;102880.72;;;10.53;76.94
74778;BME280;63298;53.164;8.610;2022-09-21T07:48:06;102883.34;;;10.69;77.88
74778;BME280;63298;53.164;8.610;2022-09-21T07:50:32;102878.50;;;10.86;76.92
74778;BME280;63298;53.164;8.610;2022-09-21T07:52:58;102869.97;;;10.95;76.38
74778;BME280;63298;53.164;8.610;2022-09-21T07:55:23;102871.00;;;11.09;76.13
74778;BME280;63298;53.164;8.610;2022-09-21T07:57:49;102871.94;;;11.16;76.02
74778;BME280;63298;53.164;8.610;2022-09-21T08:00:14;102876.59;;;11.30;76.16
74778;BME280;63298;53.164;8.610;2022-09-21T08:02:39;102867.34;;;11.38;76.05
74778;BME280;63298;53.164;8.610;2022-09-21T08:05:05;102864.47;;;11.46;76.12
74778;BME280;63298;53.164;8.610;2022-09-21T08:07:30;102866.34;;;11.60;76.29
74778;BME280;63298;53.164;8.610;2022-09-21T08:09:56;102868.34;;;11.66;76.43
74778;BME280;63298;53.164;8.610;2022-09-21T08:12:21;102866.25;;;11.83;76.05
74778;BME280;63298;53.164;8.610;2022-09-21T08:14:46;102862.69;;;11.89;76.67
74778;BME280;63298;53.164;8.610;2022-09-21T08:17:12;102866.81;;;11.99;76.46
74778;BME280;63298;53.164;8.610;2022-09-21T08:19:38;102862.31;;;12.13;76.22
74778;BME280;63298;53.164;8.610;2022-09-21T08:22:03;102860.34;;;12.28;75.89
74778;BME280;63298;53.164;8.610;2022-09-21T08:24:29;102853.63;;;12.44;75.93
74778;BME280;63298;53.164;8.610;2022-09-21T08:26:54;102870.56;;;12.55;76.13
74778;BME280;63298;53.164;8.610;2022-09-21T08:29:20;102862.34;;;12.69;76.10
74778;BME280;63298;53.164;8.610;2022-09-21T08:31:45;102864.16;;;12.83;75.43
74778;BME280;63298;53.164;8.610;2022-09-21T08:34:11;102868.50;;;12.92;74.95
74778;BME280;63298;53.164;8.610;2022-09-21T08:36:36;102872.66;;;13.09;75.12
74778;BME280;63298;53.164;8.610;2022-09-21T08:39:01;102864.66;;;13.21;75.03
74778;BME280;63298;53.164;8.610;2022-09-21T08:44:14;102876.09;;;13.46;74.66
74778;BME280;63298;53.164;8.610;2022-09-21T08:46:43;102872.06;;;13.55;74.60
74778;BME280;63298;53.164;8.610;2022-09-21T08:49:18;102874.03;;;13.61;74.11
74778;BME280;63298;53.164;8.610;2022-09-21T08:51:51;102868.31;;;13.75;74.20
74778;BME280;63298;53.164;8.610;2022-09-21T08:54:27;102869.63;;;13.86;73.87
74778;BME280;63298;53.164;8.610;2022-09-21T08:56:56;102870.72;;;13.98;73.54
74778;BME280;63298;53.164;8.610;2022-09-21T08:59:22;102877.38;;;14.10;73.52
74778;BME280;63298;53.164;8.610;2022-09-21T09:02:12;102874.41;;;14.18;72.95
74778;BME280;63298;53.164;8.610;2022-09-21T09:05:11;102875.03;;;14.27;72.79
74778;BME280;63298;53.164;8.610;2022-09-21T09:10:51;102878.53;;;14.49;72.32
74778;BME280;63298;53.164;8.610;2022-09-21T09:19:23;102880.66;;;14.73;71.79
74778;BME280;63298;53.164;8.610;2022-09-21T09:21:51;102877.88;;;14.80;71.66
74778;BME280;63298;53.164;8.610;2022-09-21T09:24:29;102880.41;;;14.88;70.58
74778;BME280;63298;53.164;8.610;2022-09-21T09:27:03;102866.50;;;15.01;71.00
74778;BME280;63298;53.164;8.610;2022-09-21T09:29:38;102868.81;;;15.10;70.76
74778;BME280;63298;53.164;8.610;2022-09-21T09:32:13;102884.63;;;15.23;70.22
74778;BME280;63298;53.164;8.610;2022-09-21T09:34:42;102875.00;;;15.26;70.61
74778;BME280;63298;53.164;8.610;2022-09-21T09:37:14;102872.41;;;15.31;68.22
74778;BME280;63298;53.164;8.610;2022-09-21T09:39:42;102867.28;;;15.28;69.11
74778;BME280;63298;53.164;8.610;2022-09-21T09:52:16;102870.63;;;15.49;68.61
74778;BME280;63298;53.164;8.610;2022-09-21T09:54:41;102870.22;;;15.46;67.85
74778;BME280;63298;53.164;8.610;2022-09-21T09:57:08;102865.72;;;15.45;67.85
74778;BME280;63298;53.164;8.610;2022-09-21T09:59:47;102878.59;;;15.52;67.27
74778;BME280;63298;53.164;8.610;2022-09-21T10:02:25;102872.81;;;15.54;65.09
74778;BME280;63298;53.164;8.610;2022-09-21T10:05:01;102876.13;;;15.69;65.22
74778;BME280;63298;53.164;8.610;2022-09-21T10:07:34;102880.81;;;15.75;65.08
74778;BME280;63298;53.164;8.610;2022-09-21T10:09:59;102873.34;;;15.76;66.56
74778;BME280;63298;53.164;8.610;2022-09-21T10:12:25;102878.22;;;15.80;66.50
74778;BME280;63298;53.164;8.610;2022-09-21T10:14:52;102861.72;;;15.85;66.02
74778;BME280;63298;53.164;8.610;2022-09-21T10:17:19;102868.31;;;15.91;65.85
74778;BME280;63298;53.164;8.610;2022-09-21T10:19:45;102863.81;;;15.96;65.81
74778;BME280;63298;53.164;8.610;2022-09-21T10:22:19;102864.59;;;16.04;64.98
74778;BME280;63298;53.164;8.610;2022-09-21T10:24:51;102858.09;;;16.16;65.89
74778;BME280;63298;53.164;8.610;2022-09-21T10:27:24;102856.53;;;16.27;65.13
74778;BME280;63298;53.164;8.610;2022-09-21T10:29:51;102860.44;;;16.44;65.36
74778;BME280;63298;53.164;8.610;2022-09-21T10:32:19;102849.47;;;16.49;65.08
74778;BME280;63298;53.164;8.610;2022-09-21T10:35:12;102856.06;;;16.61;64.38
74778;BME280;63298;53.164;8.610;2022-09-21T10:37:40;102861.81;;;16.66;64.45
74778;BME280;63298;53.164;8.610;2022-09-21T10:42:44;102859.03;;;16.66;63.32
74778;BME280;63298;53.164;8.610;2022-09-21T10:45:27;102858.13;;;16.72;63.12
74778;BME280;63298;53.164;8.610;2022-09-21T10:48:14;102862.69;;;16.85;63.11
74778;BME280;63298;53.164;8.610;2022-09-21T10:50:43;102857.47;;;16.95;63.38
74778;BME280;63298;53.164;8.610;2022-09-21T10:58:37;102841.22;;;17.10;62.38
74778;BME280;63298;53.164;8.610;2022-09-21T11:01:20;102853.22;;;17.29;62.18
74778;BME280;63298;53.164;8.610;2022-09-21T11:03:55;102852.44;;;17.40;61.54
74778;BME280;63298;53.164;8.610;2022-09-21T11:06:31;102843.16;;;17.46;59.40
74778;BME280;63298;53.164;8.610;2022-09-21T11:09:08;102843.69;;;17.55;59.60
74778;BME280;63298;53.164;8.610;2022-09-21T11:11:59;102845.97;;;17.58;57.02
74778;BME280;63298;53.164;8.610;2022-09-21T11:14:40;102842.59;;;17.56;55.55
74778;BME280;63298;53.164;8.610;2022-09-21T11:23:02;102842.09;;;17.77;60.34
74778;BME280;63298;53.164;8.610;2022-09-21T11:28:29;102846.31;;;17.68;59.46
74778;BME280;63298;53.164;8.610;2022-09-21T11:31:06;102837.00;;;17.74;59.79
74778;BME280;63298;53.164;8.610;2022-09-21T11:37:13;102839.88;;;17.67;57.30
74778;BME280;63298;53.164;8.610;2022-09-21T11:53:59;102828.38;;;18.05;56.93
74778;BME280;63298;53.164;8.610;2022-09-21T11:56:42;102827.41;;;18.00;58.62
74778;BME280;63298;53.164;8.610;2022-09-21T12:02:34;102822.63;;;17.89;57.84
74778;BME280;63298;53.164;8.610;2022-09-21T12:05:26;102829.22;;;18.06;58.08
74778;BME280;63298;53.164;8.610;2022-09-21T12:13:40;102812.72;;;18.16;54.15
74778;BME280;63298;53.164;8.610;2022-09-21T12:16:23;102808.38;;;18.32;55.42
74778;BME280;63298;53.164;8.610;2022-09-21T12:19:25;102813.03;;;18.49;56.99
74778;BME280;63298;53.164;8.610;2022-09-21T12:22:03;102814.91;;;18.67;52.43
74778;BME280;63298;53.164;8.610;2022-09-21T12:24:34;102816.72;;;18.73;53.75
74778;BME280;63298;53.164;8.610;2022-09-21T12:27:11;102808.22;;;18.68;53.87
74778;BME280;63298;53.164;8.610;2022-09-21T12:29:42;102810.41;;;18.78;55.45
74778;BME280;63298;53.164;8.610;2022-09-21T12:32:24;102807.97;;;18.93;53.46
74778;BME280;63298;53.164;8.610;2022-09-21T12:34:57;102796.91;;;18.98;54.37
74778;BME280;63298;53.164;8.610;2022-09-21T12:37:40;102803.69;;;19.02;51.04
74778;BME280;63298;53.164;8.610;2022-09-21T12:40:33;102800.66;;;19.04;52.76
74778;BME280;63298;53.164;8.610;2022-09-21T12:43:06;102802.72;;;19.08;54.46
74778;BME280;63298;53.164;8.610;2022-09-21T12:45:40;102794.91;;;19.10;55.01
74778;BME280;63298;53.164;8.610;2022-09-21T12:53:49;102794.09;;;19.50;53.90
74778;BME280;63298;53.164;8.610;2022-09-21T13:01:43;102782.44;;;19.41;49.24
74778;BME280;63298;53.164;8.610;2022-09-21T13:04:30;102784.13;;;19.42;52.49
74778;BME280;63298;53.164;8.610;2022-09-21T13:09:47;102775.09;;;19.63;52.00
74778;BME280;63298;53.164;8.610;2022-09-21T13:12:20;102779.31;;;19.66;52.04
74778;BME280;63298;53.164;8.610;2022-09-21T13:14:50;102764.56;;;19.70;52.04
74778;BME280;63298;53.164;8.610;2022-09-21T13:17:25;102761.84;;;19.75;52.37
74778;BME280;63298;53.164;8.610;2022-09-21T13:20:14;102766.50;;;19.70;52.86
74778;BME280;63298;53.164;8.610;2022-09-21T13:22:40;102761.53;;;19.72;52.68
74778;BME280;63298;53.164;8.610;2022-09-21T13:25:18;102760.53;;;19.78;51.81
74778;BME280;63298;53.164;8.610;2022-09-21T13:43:48;102754.91;;;19.78;49.36
74778;BME280;63298;53.164;8.610;2022-09-21T13:54:44;102751.09;;;19.84;52.14
74778;BME280;63298;53.164;8.610;2022-09-21T13:57:40;102748.47;;;19.94;51.42
74778;BME280;63298;53.164;8.610;2022-09-21T14:02:44;102751.56;;;20.26;51.07
74778;BME280;63298;53.164;8.610;2022-09-21T14:05:30;102744.09;;;20.32;46.67
74778;BME280;63298;53.164;8.610;2022-09-21T14:08:05;102742.16;;;20.32;50.51
74778;BME280;63298;53.164;8.610;2022-09-21T14:10:34;102732.94;;;20.20;50.78
74778;BME280;63298;53.164;8.610;2022-09-21T14:13:06;102747.63;;;19.94;49.96
74778;BME280;63298;53.164;8.610;2022-09-21T14:15:46;102744.09;;;19.70;51.27
74778;BME280;63298;53.164;8.610;2022-09-21T14:20:37;102743.13;;;19.48;50.67
74778;BME280;63298;53.164;8.610;2022-09-21T14:23:28;102740.44;;;19.41;50.24
74778;BME280;63298;53.164;8.610;2022-09-21T14:25:54;102746.47;;;19.61;51.68
74778;BME280;63298;53.164;8.610;2022-09-21T14:31:01;102732.59;;;19.83;48.80
74778;BME280;63298;53.164;8.610;2022-09-21T14:33:32;102735.97;;;19.85;49.40
74778;BME280;63298;53.164;8.610;2022-09-21T14:36:04;102722.41;;;19.94;48.87
74778;BME280;63298;53.164;8.610;2022-09-21T14:38:37;102728.63;;;20.12;49.47
74778;BME280;63298;53.164;8.610;2022-09-21T14:41:06;102722.16;;;20.28;49.27
74778;BME280;63298;53.164;8.610;2022-09-21T14:43:36;102720.13;;;20.41;48.89
74778;BME280;63298;53.164;8.610;2022-09-21T14:49:28;102719.13;;;20.47;48.71
74778;BME280;63298;53.164;8.610;2022-09-21T14:56:57;102705.97;;;20.31;45.96
74778;BME280;63298;53.164;8.610;2022-09-21T15:02:08;102703.16;;;20.31;47.66
74778;BME280;63298;53.164;8.610;2022-09-21T15:04:43;102698.72;;;20.35;46.49
74778;BME280;63298;53.164;8.610;2022-09-21T15:13:10;102690.72;;;20.43;44.68
74778;BME280;63298;53.164;8.610;2022-09-21T15:15:44;102694.31;;;20.39;47.40
74778;BME280;63298;53.164;8.610;2022-09-21T15:18:17;102689.13;;;20.31;46.92
74778;BME280;63298;53.164;8.610;2022-09-21T15:20:58;102689.28;;;20.24;48.16
74778;BME280;63298;53.164;8.610;2022-09-21T15:23:23;102694.56;;;20.20;48.82
74778;BME280;63298;53.164;8.610;2022-09-21T15:25:55;102687.69;;;20.11;47.19
74778;BME280;63298;53.164;8.610;2022-09-21T15:28:21;102694.38;;;20.10;48.43
74778;BME280;63298;53.164;8.610;2022-09-21T15:30:46;102686.84;;;20.11;47.94
74778;BME280;63298;53.164;8.610;2022-09-21T15:33:12;102691.06;;;20.13;48.77
74778;BME280;63298;53.164;8.610;2022-09-21T15:35:37;102688.88;;;20.15;48.16
74778;BME280;63298;53.164;8.610;2022-09-21T15:38:33;102685.47;;;20.13;48.10
74778;BME280;63298;53.164;8.610;2022-09-21T15:40:59;102681.47;;;20.09;47.83
74778;BME280;63298;53.164;8.610;2022-09-21T15:43:24;102686.16;;;20.04;47.82
74778;BME280;63298;53.164;8.610;2022-09-21T15:45:56;102687.75;;;20.00;47.97
74778;BME280;63298;53.164;8.610;2022-09-21T15:48:24;102686.91;;;19.99;48.39
74778;BME280;63298;53.164;8.610;2022-09-21T15:50:56;102694.75;;;19.97;48.05
74778;BME280;63298;53.164;8.610;2022-09-21T15:53:26;102686.81;;;19.94;48.70
74778;BME280;63298;53.164;8.610;2022-09-21T15:55:53;102679.03;;;19.96;48.28